Time;durP1;ratioP1;P1;durP2;ratioP2;P2;SDS_P1;SDS_P2;PMS_P1;PMS_P2;Temp;Humidity;BMP_temperature;BMP_pressure;BME280_temperature;BME280_humidity;BME280_pressure;Samples;Min_cycle;Max_cycle;Signal;HPM_P1;HPM_P2
2024/02/29 00:00:14;;;;;;;305.80;212.82;;;18.50;77.50;;;;;;5052493;28;20028;-66
2024/02/29 00:02:40;;;;;;;296.83;206.10;;;18.50;77.40;;;;;;5034578;28;20487;-67
2024/02/29 00:05:06;;;;;;;304.30;210.40;;;18.50;77.50;;;;;;5052886;28;20017;-66
2024/02/29 00:07:32;;;;;;;301.98;206.77;;;18.50;77.40;;;;;;5053014;28;20028;-66
2024/02/29 00:09:58;;;;;;;296.75;205.90;;;18.50;77.40;;;;;;5052771;28;20037;-66
2024/02/29 00:12:24;;;;;;;291.55;201.63;;;18.50;77.40;;;;;;5052614;28;20402;-66
2024/02/29 00:14:51;;;;;;;296.02;206.15;;;18.50;77.40;;;;;;5052650;28;20108;-65
2024/02/29 00:17:17;;;;;;;285.95;200.05;;;18.50;77.40;;;;;;5051163;28;20097;-64
2024/02/29 00:19:43;;;;;;;291.15;200.18;;;18.50;77.40;;;;;;5051444;28;20059;-65
2024/02/29 00:22:09;;;;;;;294.42;198.45;;;18.50;77.50;;;;;;5052417;28;20553;-65
2024/02/29 00:24:35;;;;;;;284.30;199.25;;;18.50;77.50;;;;;;5052733;28;20056;-65
2024/02/29 00:27:00;;;;;;;282.40;193.73;;;18.60;77.40;;;;;;5052339;28;20017;-66
2024/02/29 00:29:28;;;;;;;283.52;193.07;;;18.60;77.40;;;;;;5052453;28;20021;-65
2024/02/29 00:32:00;;;;;;;285.42;196.43;;;18.60;77.40;;;;;;5052207;28;20020;-66
2024/02/29 00:34:26;;;;;;;285.13;195.88;;;18.60;77.30;;;;;;5052529;28;20408;-65
2024/02/29 00:36:51;;;;;;;284.65;194.48;;;18.60;77.30;;;;;;5052364;28;20021;-65
2024/02/29 00:39:17;;;;;;;284.35;192.48;;;18.60;77.30;;;;;;5052193;28;20393;-66
2024/02/29 00:41:42;;;;;;;273.35;187.38;;;18.60;77.20;;;;;;5052031;28;20017;-65
2024/02/29 00:44:09;;;;;;;274.23;187.13;;;18.60;77.20;;;;;;5050905;28;20032;-65
2024/02/29 00:46:37;;;;;;;268.90;184.18;;;18.60;77.20;;;;;;5051977;28;20365;-65
2024/02/29 00:49:03;;;;;;;267.90;183.95;;;18.60;77.10;;;;;;5052358;28;20025;-65
2024/02/29 00:51:28;;;;;;;269.42;181.68;;;18.60;77.10;;;;;;5051879;28;20021;-65
2024/02/29 00:53:54;;;;;;;267.73;182.63;;;18.60;77.10;;;;;;5052220;28;20087;-66
2024/02/29 00:56:19;;;;;;;261.95;179.27;;;18.70;77.00;;;;;;5051943;28;20102;-66
2024/02/29 00:58:45;;;;;;;260.75;176.85;;;18.70;77.10;;;;;;5052105;28;20037;-66
2024/02/29 01:01:11;;;;;;;259.77;177.75;;;18.60;77.20;;;;;;5052502;28;20031;-66
2024/02/29 01:03:36;;;;;;;259.15;175.93;;;18.70;77.10;;;;;;5052436;28;20029;-66
2024/02/29 01:06:04;;;;;;;253.60;170.77;;;18.60;77.10;;;;;;5052133;28;20113;-66
2024/02/29 01:08:30;;;;;;;251.25;170.55;;;18.70;77.10;;;;;;5050696;28;20025;-68
2024/02/29 01:10:56;;;;;;;251.43;172.00;;;18.60;77.10;;;;;;5051559;28;20032;-67
2024/02/29 01:13:22;;;;;;;248.25;168.70;;;18.60;77.10;;;;;;5050382;28;20099;-68
2024/02/29 01:15:49;;;;;;;248.48;171.95;;;18.60;77.10;;;;;;5051815;28;20029;-68
2024/02/29 01:18:14;;;;;;;246.50;165.20;;;18.60;77.10;;;;;;5051561;28;20131;-67
2024/02/29 01:20:40;;;;;;;241.27;166.13;;;18.60;77.10;;;;;;5051385;28;20032;-67
2024/02/29 01:23:06;;;;;;;244.98;163.70;;;18.60;77.00;;;;;;5051717;28;20036;-67
2024/02/29 01:25:32;;;;;;;243.98;163.75;;;18.60;77.10;;;;;;5051538;28;20538;-67
2024/02/29 01:27:57;;;;;;;236.20;161.82;;;18.70;77.00;;;;;;5049938;28;20115;-67
2024/02/29 01:30:23;;;;;;;237.95;162.98;;;18.70;77.10;;;;;;5051506;28;20052;-67
2024/02/29 01:32:49;;;;;;;237.80;159.23;;;18.60;77.10;;;;;;5052066;28;20029;-68
2024/02/29 01:35:14;;;;;;;234.40;159.85;;;18.70;77.10;;;;;;5052287;28;20035;-68
2024/02/29 01:37:41;;;;;;;244.27;164.23;;;18.60;77.00;;;;;;5051957;28;20114;-68
2024/02/29 01:40:07;;;;;;;228.35;155.73;;;18.60;77.10;;;;;;5052104;28;20021;-67
2024/02/29 01:42:33;;;;;;;237.63;161.18;;;18.60;77.10;;;;;;5051904;28;20087;-66
2024/02/29 01:44:59;;;;;;;230.73;155.07;;;18.60;77.20;;;;;;5052329;28;20488;-66
2024/02/29 01:47:26;;;;;;;227.82;157.93;;;18.70;77.20;;;;;;5051972;28;20112;-67
2024/02/29 01:49:58;;;;;;;225.88;155.32;;;18.60;77.10;;;;;;5052116;28;20017;-66
2024/02/29 01:52:26;;;;;;;225.82;153.68;;;18.60;77.10;;;;;;5051806;28;20443;-66
2024/02/29 01:54:52;;;;;;;223.40;152.25;;;18.70;77.10;;;;;;5051760;28;20079;-65
2024/02/29 01:57:18;;;;;;;217.55;149.88;;;18.60;77.10;;;;;;5051574;28;20463;-66
2024/02/29 01:59:46;;;;;;;223.32;150.52;;;18.70;77.10;;;;;;5051898;28;20017;-65
2024/02/29 02:02:12;;;;;;;221.45;151.88;;;18.70;77.10;;;;;;5051642;28;20024;-66
2024/02/29 02:04:37;;;;;;;215.85;146.95;;;18.70;77.00;;;;;;5051709;28;20541;-65
2024/02/29 02:07:04;;;;;;;213.25;146.27;;;18.70;77.10;;;;;;5051723;28;20025;-66
2024/02/29 02:09:30;;;;;;;219.40;149.27;;;18.70;77.20;;;;;;5051568;28;20489;-66
2024/02/29 02:11:56;;;;;;;221.55;149.30;;;18.70;77.30;;;;;;5051492;28;20036;-66
2024/02/29 02:14:22;;;;;;;207.48;143.20;;;18.70;77.30;;;;;;5051637;28;20021;-65
2024/02/29 02:16:48;;;;;;;221.02;150.10;;;18.70;77.30;;;;;;5051511;28;20036;-65
2024/02/29 02:19:15;;;;;;;210.60;144.77;;;18.70;77.30;;;;;;5051617;28;20106;-66
2024/02/29 02:21:44;;;;;;;211.40;142.02;;;18.70;77.40;;;;;;5051394;28;20036;-67
2024/02/29 02:24:10;;;;;;;206.57;141.88;;;18.80;77.50;;;;;;5051412;28;20028;-67
2024/02/29 02:26:35;;;;;;;201.85;141.23;;;18.70;77.30;;;;;;5051402;28;20025;-67
2024/02/29 02:29:03;;;;;;;201.02;137.32;;;18.70;77.20;;;;;;5051614;28;20522;-65
2024/02/29 02:31:29;;;;;;;199.45;136.68;;;18.80;77.50;;;;;;5051251;28;20484;-65
2024/02/29 02:33:55;;;;;;;198.32;136.60;;;18.70;77.30;;;;;;5051427;28;20056;-65
2024/02/29 02:36:22;;;;;;;187.90;133.65;;;18.70;77.30;;;;;;5051408;28;20029;-65
2024/02/29 02:38:47;;;;;;;211.07;138.05;;;18.70;77.20;;;;;;5051204;28;20021;-65
2024/02/29 02:41:13;;;;;;;192.40;133.00;;;18.70;77.20;;;;;;5051118;28;20024;-65
2024/02/29 02:43:39;;;;;;;186.80;129.90;;;18.70;77.10;;;;;;5051305;28;20447;-65
2024/02/29 02:46:04;;;;;;;194.40;132.90;;;18.70;77.10;;;;;;5051316;28;20373;-65
2024/02/29 02:48:30;;;;;;;192.18;133.60;;;18.70;77.10;;;;;;5051067;28;20029;-67
2024/02/29 02:50:55;;;;;;;195.57;131.80;;;18.70;77.10;;;;;;5051129;28;20029;-65
2024/02/29 02:53:21;;;;;;;190.35;129.82;;;18.70;77.10;;;;;;5051151;28;20051;-65
2024/02/29 02:55:47;;;;;;;191.25;132.30;;;18.70;77.10;;;;;;5051316;28;20025;-65
2024/02/29 02:58:12;;;;;;;189.63;128.23;;;18.70;77.20;;;;;;5050977;28;20037;-65
2024/02/29 03:00:38;;;;;;;187.38;128.65;;;18.70;77.20;;;;;;5050946;28;20028;-65
2024/02/29 03:03:04;;;;;;;187.55;130.10;;;18.70;77.20;;;;;;5051008;28;20037;-65
2024/02/29 03:05:30;;;;;;;178.85;124.53;;;18.70;77.20;;;;;;5051192;28;20020;-65
2024/02/29 03:07:55;;;;;;;180.30;124.00;;;18.70;77.20;;;;;;5050914;28;20025;-65
2024/02/29 03:10:21;;;;;;;184.15;125.45;;;18.70;77.10;;;;;;5050904;28;20063;-65
2024/02/29 03:12:48;;;;;;;184.35;124.60;;;18.70;77.10;;;;;;5050828;28;20033;-64
2024/02/29 03:15:15;;;;;;;176.60;121.82;;;18.70;77.10;;;;;;5051176;28;20113;-65
2024/02/29 03:17:41;;;;;;;175.55;120.97;;;18.70;77.10;;;;;;5050889;28;20029;-65
2024/02/29 03:20:12;;;;;;;177.43;123.32;;;18.70;77.10;;;;;;5050927;28;20086;-65
2024/02/29 03:22:39;;;;;;;174.18;121.03;;;18.70;77.20;;;;;;5050709;28;20037;-65
2024/02/29 03:25:05;;;;;;;177.57;123.97;;;18.70;77.20;;;;;;5051040;28;20157;-65
2024/02/29 03:27:30;;;;;;;169.52;119.15;;;18.70;77.10;;;;;;5051090;28;20021;-65
2024/02/29 03:29:59;;;;;;;173.88;118.50;;;18.70;77.10;;;;;;5054722;28;20040;-65
2024/02/29 03:32:24;;;;;;;167.65;116.38;;;18.70;77.00;;;;;;5055428;28;20591;-66
2024/02/29 03:34:50;;;;;;;168.98;117.38;;;18.70;77.00;;;;;;5063474;28;20021;-66
2024/02/29 03:37:19;;;;;;;170.00;115.72;;;18.70;77.10;;;;;;5065988;28;20025;-66
2024/02/29 03:39:44;;;;;;;168.70;117.43;;;18.70;77.00;;;;;;5065337;28;20029;-66
2024/02/29 03:42:11;;;;;;;170.23;114.70;;;18.70;77.00;;;;;;5056771;28;20035;-66
2024/02/29 03:44:37;;;;;;;162.45;111.13;;;18.80;77.10;;;;;;5054264;28;20067;-66
2024/02/29 03:47:03;;;;;;;166.18;116.07;;;18.70;77.00;;;;;;5054182;28;20029;-66
2024/02/29 03:49:29;;;;;;;164.43;113.80;;;18.80;77.00;;;;;;5054181;28;20056;-67
2024/02/29 03:51:54;;;;;;;160.65;112.75;;;18.70;77.00;;;;;;5053916;28;20063;-66
2024/02/29 03:54:20;;;;;;;159.93;112.35;;;18.70;77.00;;;;;;5054169;28;20025;-66
2024/02/29 03:56:46;;;;;;;160.60;113.20;;;18.70;77.00;;;;;;5054108;28;20033;-67
2024/02/29 03:59:11;;;;;;;161.00;110.05;;;18.80;76.90;;;;;;5054074;28;20032;-67
2024/02/29 04:01:37;;;;;;;157.60;109.18;;;18.70;77.00;;;;;;5053813;28;20158;-66
2024/02/29 04:04:02;;;;;;;155.07;106.28;;;18.80;77.00;;;;;;5053865;28;20096;-65
2024/02/29 04:06:28;;;;;;;153.43;105.82;;;18.70;77.30;;;;;;5053604;28;20451;-65
2024/02/29 04:08:54;;;;;;;160.90;108.18;;;18.80;77.30;;;;;;5053912;28;20025;-65
2024/02/29 04:11:19;;;;;;;155.20;107.32;;;18.80;77.20;;;;;;5052525;28;20029;-66
2024/02/29 04:13:45;;;;;;;152.18;102.60;;;18.80;77.10;;;;;;5053612;28;20029;-66
2024/02/29 04:16:11;;;;;;;148.90;104.35;;;18.80;77.30;;;;;;5053445;28;20112;-66
2024/02/29 04:18:39;;;;;;;147.57;101.53;;;18.80;77.20;;;;;;5053484;28;20025;-65
2024/02/29 04:21:04;;;;;;;147.57;102.70;;;18.80;77.10;;;;;;5053175;28;20118;-66
2024/02/29 04:23:30;;;;;;;147.35;101.53;;;18.80;77.00;;;;;;5053258;28;20053;-66
2024/02/29 04:25:56;;;;;;;144.35;100.93;;;18.70;77.00;;;;;;5053634;28;20060;-66
2024/02/29 04:28:21;;;;;;;143.23;100.75;;;18.70;77.00;;;;;;5053491;28;20041;-67
2024/02/29 04:30:47;;;;;;;142.43;99.18;;;18.80;77.00;;;;;;5053167;28;20039;-65
2024/02/29 04:33:12;;;;;;;142.60;98.63;;;18.70;77.00;;;;;;5053357;28;20035;-66
2024/02/29 04:35:38;;;;;;;144.00;96.47;;;18.70;77.00;;;;;;5053108;28;20488;-66
2024/02/29 04:38:04;;;;;;;143.63;97.53;;;18.70;76.90;;;;;;5053420;28;20105;-65
2024/02/29 04:40:30;;;;;;;134.07;94.53;;;18.80;76.90;;;;;;5052240;28;20021;-67
2024/02/29 04:42:55;;;;;;;138.60;95.75;;;18.70;76.80;;;;;;5053187;28;20025;-66
2024/02/29 04:45:24;;;;;;;141.25;96.43;;;18.70;76.80;;;;;;5053423;28;20163;-67
2024/02/29 04:47:52;;;;;;;131.50;93.40;;;18.80;76.80;;;;;;5053018;28;20108;-67
2024/02/29 04:50:18;;;;;;;139.25;94.80;;;18.70;76.70;;;;;;5051717;28;20059;-66
2024/02/29 04:52:44;;;;;;;130.07;93.28;;;18.70;76.70;;;;;;5051814;28;20439;-66
2024/02/29 04:55:10;;;;;;;136.13;91.90;;;18.70;76.70;;;;;;5052895;28;20060;-63
2024/02/29 04:57:36;;;;;;;133.82;92.10;;;18.70;76.80;;;;;;5052874;28;20056;-64
2024/02/29 05:00:01;;;;;;;128.80;89.03;;;18.70;76.80;;;;;;5052885;28;20052;-65
2024/02/29 05:02:27;;;;;;;133.77;91.90;;;18.70;76.90;;;;;;5052776;28;20516;-65
2024/02/29 05:04:53;;;;;;;130.85;90.30;;;18.70;76.80;;;;;;5052592;28;20473;-65
2024/02/29 05:07:19;;;;;;;127.65;89.93;;;18.70;76.90;;;;;;5052693;28;20162;-64
2024/02/29 05:09:44;;;;;;;124.93;88.18;;;18.70;76.80;;;;;;5052645;28;20044;-65
2024/02/29 05:12:10;;;;;;;127.32;89.93;;;18.70;76.80;;;;;;5052315;28;20581;-66
2024/02/29 05:14:35;;;;;;;129.95;90.05;;;18.70;77.00;;;;;;5052485;28;20024;-66
2024/02/29 05:17:01;;;;;;;122.85;85.60;;;18.80;77.10;;;;;;5052207;28;20495;-66
2024/02/29 05:19:27;;;;;;;124.95;86.60;;;18.70;77.20;;;;;;5052517;28;20094;-65
2024/02/29 05:21:53;;;;;;;123.72;84.95;;;18.70;77.30;;;;;;5052231;28;20044;-65
2024/02/29 05:24:18;;;;;;;125.97;86.72;;;18.70;77.50;;;;;;5052281;28;20095;-65
2024/02/29 05:26:44;;;;;;;121.45;83.35;;;18.70;77.50;;;;;;5051936;28;20084;-65
2024/02/29 05:29:10;;;;;;;121.63;84.30;;;18.80;77.30;;;;;;5052104;28;20472;-65
2024/02/29 05:31:37;;;;;;;120.05;81.47;;;18.70;77.40;;;;;;5051829;28;20029;-66
2024/02/29 05:34:02;;;;;;;115.78;79.18;;;18.70;77.40;;;;;;5051975;28;20045;-65
2024/02/29 05:36:28;;;;;;;119.78;81.63;;;18.70;77.40;;;;;;5051867;28;20029;-65
2024/02/29 05:38:54;;;;;;;116.95;81.10;;;18.70;77.50;;;;;;5052044;28;20025;-66
2024/02/29 05:41:20;;;;;;;116.07;79.22;;;18.70;77.50;;;;;;5057952;28;20024;-65
2024/02/29 05:43:46;;;;;;;114.57;79.78;;;18.70;77.60;;;;;;5071971;28;20021;-65
2024/02/29 05:46:12;;;;;;;112.60;79.13;;;18.70;77.60;;;;;;5071767;28;20059;-66
2024/02/29 05:48:39;;;;;;;114.57;78.22;;;18.70;77.70;;;;;;5071999;28;20052;-66
2024/02/29 05:51:07;;;;;;;114.00;78.53;;;18.80;77.70;;;;;;5071281;28;20031;-65
2024/02/29 05:53:32;;;;;;;112.28;75.78;;;18.80;77.70;;;;;;5071988;28;20100;-65
2024/02/29 05:55:58;;;;;;;109.63;74.68;;;18.70;77.70;;;;;;5071871;28;20479;-66
2024/02/29 05:58:28;;;;;;;107.25;74.15;;;18.70;77.60;;;;;;5071990;28;20068;-66
2024/02/29 06:00:54;;;;;;;111.47;77.40;;;18.70;77.60;;;;;;5071562;28;20054;-67
2024/02/29 06:03:19;;;;;;;111.32;75.35;;;18.70;77.70;;;;;;5071756;28;20055;-67
2024/02/29 06:05:45;;;;;;;123.20;77.68;;;18.70;78.00;;;;;;5071468;28;20025;-66
2024/02/29 06:08:10;;;;;;;116.85;76.00;;;18.70;79.40;;;;;;5071452;28;20039;-66
2024/02/29 06:10:36;;;;;;;122.78;76.10;;;18.80;79.70;;;;;;5071509;28;20368;-67
2024/02/29 06:13:01;;;;;;;121.20;74.45;;;18.80;79.80;;;;;;5071512;28;20032;-67
2024/02/29 06:15:27;;;;;;;111.38;72.50;;;18.80;79.90;;;;;;5071395;28;20506;-66
2024/02/29 06:17:54;;;;;;;132.52;72.88;;;18.80;79.90;;;;;;5071308;28;20032;-66
2024/02/29 06:20:19;;;;;;;122.07;71.70;;;18.80;79.90;;;;;;5071423;28;20012;-65
2024/02/29 06:22:45;;;;;;;102.82;67.63;;;18.80;79.70;;;;;;5071202;28;20028;-67
2024/02/29 06:25:10;;;;;;;121.10;67.57;;;18.80;79.40;;;;;;5071334;28;20051;-68
2024/02/29 06:27:37;;;;;;;101.22;67.85;;;18.80;79.20;;;;;;5071406;28;20479;-69
2024/02/29 06:30:05;;;;;;;38.95;28.75;;;18.80;79.10;;;;;;5071281;28;20029;-68
2024/02/29 06:32:31;;;;;;;37.35;26.77;;;;;;;;;;5071314;28;20031;-68
2024/02/29 06:34:57;;;;;;;31.33;23.13;;;;;;;;;;5071448;28;20032;-67
2024/02/29 06:37:23;;;;;;;32.35;22.35;;;;;;;;;;5071046;28;20029;-68
2024/02/29 06:39:49;;;;;;;32.88;22.85;;;;;;;;;;5071241;28;20024;-68
2024/02/29 06:42:15;;;;;;;32.38;22.80;;;;;;;;;;5071026;28;20438;-68
2024/02/29 06:44:41;;;;;;;30.85;22.27;;;;;;;;;;5070928;28;20031;-67
2024/02/29 06:47:07;;;;;;;29.55;21.05;;;;;;;;;;5070848;28;20025;-67
2024/02/29 06:49:33;;;;;;;31.10;21.98;;;;;;;;;;5071303;28;20020;-68
2024/02/29 06:51:59;;;;;;;32.22;22.25;;;;;;;;;;5070966;28;20611;-68
2024/02/29 06:54:25;;;;;;;44.20;27.05;;;;;;;;;;5070995;28;20031;-68
2024/02/29 06:56:50;;;;;;;46.45;29.95;;;;;;;;;;5070833;28;20050;-68
2024/02/29 06:59:16;;;;;;;50.95;31.65;;;;;;;;;;5070824;28;20111;-68
2024/02/29 07:01:42;;;;;;;52.67;31.92;;;;;;;;;;5070739;28;20032;-68
2024/02/29 07:04:08;;;;;;;50.92;32.10;;;;;;;;;;5073887;28;20052;-69
2024/02/29 07:06:34;;;;;;;52.65;32.55;;;;;;;;;;5074977;28;20104;-69
2024/02/29 07:09:04;;;;;;;49.90;31.85;;;;;;;;;;5074982;28;20036;-69
2024/02/29 07:11:30;;;;;;;51.38;30.98;;;;;;;;;;5074331;28;20032;-68
2024/02/29 07:13:56;;;;;;;51.78;30.67;;;;;;;;;;5073247;28;20031;-68
2024/02/29 07:16:22;;;;;;;51.40;31.05;;;;;;;;;;5072958;28;20099;-69
2024/02/29 07:18:48;;;;;;;46.72;29.85;;;;;;;;;;5073641;28;20108;-68
2024/02/29 07:21:14;;;;;;;46.42;28.77;;;15.70;75.10;;;;;;5074126;28;20111;-68
2024/02/29 07:23:40;;;;;;;46.47;28.98;;;15.80;75.00;;;;;;5074668;28;20025;-69
2024/02/29 07:26:06;;;;;;;46.88;28.88;;;16.00;75.10;;;;;;5074489;28;20029;-68
2024/02/29 07:28:34;;;;;;;45.80;29.25;;;16.00;75.00;;;;;;5074324;28;20017;-68
2024/02/29 07:31:01;;;;;;;48.13;29.70;;;16.20;74.80;;;;;;5074249;28;20036;-68
2024/02/29 07:33:27;;;;;;;43.65;28.17;;;16.40;74.70;;;;;;5074452;28;20028;-69
2024/02/29 07:35:53;;;;;;;43.55;27.00;;;16.50;74.60;;;;;;5074396;28;20032;-68
2024/02/29 07:38:18;;;;;;;46.45;29.15;;;16.60;74.40;;;;;;5074271;28;20037;-68
2024/02/29 07:40:44;;;;;;;43.80;27.10;;;16.70;74.20;;;;;;5074180;28;20570;-67
2024/02/29 07:43:09;;;;;;;44.35;27.95;;;16.80;74.10;;;;;;5074221;28;20090;-68
2024/02/29 07:45:36;;;;;;;42.58;27.58;;;16.90;74.20;;;;;;5074347;28;20030;-68
2024/02/29 07:48:02;;;;;;;45.03;29.38;;;17.00;74.10;;;;;;5074570;28;20024;-69
2024/02/29 07:50:28;;;;;;;38.90;26.52;;;17.00;74.20;;;;;;5074730;28;20024;-69
2024/02/29 07:52:54;;;;;;;39.97;27.35;;;17.10;74.20;;;;;;5074539;28;20107;-69
2024/02/29 07:55:20;;;;;;;42.13;27.40;;;17.20;74.20;;;;;;5077606;28;20051;-70
2024/02/29 07:57:46;;;;;;;40.72;26.48;;;17.30;74.20;;;;;;5076109;28;20052;-69
2024/02/29 08:00:12;;;;;;;40.92;28.60;;;17.30;74.10;;;;;;5074069;28;20021;-69
2024/02/29 08:02:42;;;;;;;41.03;27.60;;;17.40;74.20;;;;;;5073718;28;20391;-68
2024/02/29 08:05:09;;;;;;;43.22;28.27;;;17.50;74.20;;;;;;5073919;28;20017;-69
2024/02/29 08:07:35;;;;;;;42.22;29.20;;;17.50;74.30;;;;;;5073691;28;20033;-69
2024/02/29 08:10:01;;;;;;;44.70;28.42;;;17.50;74.30;;;;;;5073538;28;20020;-69
2024/02/29 08:12:26;;;;;;;45.42;27.65;;;17.60;74.20;;;;;;5073708;28;20029;-69
2024/02/29 08:14:52;;;;;;;42.47;28.23;;;17.70;74.20;;;;;;5072366;28;20021;-69
2024/02/29 08:17:18;;;;;;;43.03;28.15;;;17.70;74.10;;;;;;5073435;28;20028;-70
2024/02/29 08:19:44;;;;;;;40.40;27.33;;;17.80;74.10;;;;;;5073528;28;20032;-66
2024/02/29 08:22:09;;;;;;;39.92;27.83;;;17.80;73.90;;;;;;5073526;28;20043;-67
2024/02/29 08:24:35;;;;;;;36.90;25.30;;;17.80;73.80;;;;;;5073280;28;20492;-67
2024/02/29 08:27:00;;;;;;;40.80;27.17;;;17.90;73.80;;;;;;5073301;28;20031;-67
2024/02/29 08:29:26;;;;;;;41.40;26.98;;;17.90;73.70;;;;;;5073559;28;20411;-67
2024/02/29 08:31:52;;;;;;;38.65;26.45;;;18.00;73.70;;;;;;5073125;28;20024;-68
2024/02/29 08:34:17;;;;;;;40.83;25.65;;;18.00;73.60;;;;;;5073229;28;20020;-67
2024/02/29 08:36:43;;;;;;;38.58;27.55;;;18.00;73.50;;;;;;5073207;28;20028;-68
2024/02/29 08:39:08;;;;;;;39.67;27.20;;;18.00;73.50;;;;;;5072906;28;20119;-69
2024/02/29 08:41:34;;;;;;;39.33;26.15;;;18.10;73.40;;;;;;5072858;28;20020;-67
2024/02/29 08:44:00;;;;;;;37.58;25.30;;;18.10;73.40;;;;;;5073086;28;20024;-68
2024/02/29 08:46:25;;;;;;;37.38;25.67;;;18.10;73.30;;;;;;5073003;28;20495;-68
2024/02/29 08:48:51;;;;;;;37.72;26.73;;;18.20;73.30;;;;;;5073171;28;20030;-68
2024/02/29 08:51:17;;;;;;;35.60;25.45;;;18.20;73.30;;;;;;5072790;28;20024;-68
2024/02/29 08:53:42;;;;;;;36.47;25.65;;;18.20;73.20;;;;;;5072984;28;20077;-68
2024/02/29 08:56:08;;;;;;;41.22;24.55;;;18.30;73.30;;;;;;5073251;28;20385;-67
2024/02/29 08:58:33;;;;;;;39.67;25.77;;;18.20;73.30;;;;;;5073205;28;20052;-68
2024/02/29 09:01:00;;;;;;;37.03;25.85;;;18.30;73.30;;;;;;5073096;28;20050;-68
2024/02/29 09:03:26;;;;;;;37.65;26.02;;;18.30;73.30;;;;;;5073539;28;20021;-69
2024/02/29 09:05:52;;;;;;;34.42;25.00;;;18.30;73.30;;;;;;5073866;28;20023;-68
2024/02/29 09:08:17;;;;;;;37.30;25.75;;;18.40;73.20;;;;;;5077013;28;20032;-69
2024/02/29 09:10:43;;;;;;;35.30;23.33;;;18.40;73.20;;;;;;5077923;28;20024;-67
2024/02/29 09:13:09;;;;;;;36.22;25.40;;;18.50;73.30;;;;;;5077088;28;20024;-68
2024/02/29 09:15:34;;;;;;;34.33;24.05;;;18.40;73.20;;;;;;5077468;28;20085;-68
2024/02/29 09:18:03;;;;;;;32.42;23.38;;;18.50;73.20;;;;;;5075521;28;20503;-68
2024/02/29 09:20:29;;;;;;;30.17;22.88;;;18.50;73.20;;;;;;5075536;28;20032;-68
2024/02/29 09:22:55;;;;;;;34.80;24.45;;;18.50;73.30;;;;;;5072542;28;20024;-68
2024/02/29 09:25:21;;;;;;;33.00;22.83;;;18.50;73.30;;;;;;5071801;28;20029;-68
2024/02/29 09:27:47;;;;;;;34.00;23.77;;;18.50;73.30;;;;;;5072084;28;20409;-68
2024/02/29 09:30:13;;;;;;;33.50;23.95;;;18.50;73.40;;;;;;5072090;28;20377;-68
2024/02/29 09:32:39;;;;;;;33.78;23.30;;;18.50;73.30;;;;;;5072075;28;20029;-68
2024/02/29 09:35:05;;;;;;;35.60;23.35;;;18.50;73.30;;;;;;5072073;28;20103;-68
2024/02/29 09:37:31;;;;;;;33.35;23.73;;;18.50;73.30;;;;;;5071905;28;20116;-68
2024/02/29 09:39:57;;;;;;;32.75;22.45;;;18.50;73.30;;;;;;5071963;28;20020;-68
2024/02/29 09:42:26;;;;;;;33.15;23.77;;;18.50;73.40;;;;;;5071851;28;20021;-67
2024/02/29 09:44:52;;;;;;;32.58;22.85;;;18.60;73.40;;;;;;5070908;28;20470;-68
2024/02/29 09:47:20;;;;;;;35.42;22.95;;;18.50;73.40;;;;;;5071863;28;20031;-68
2024/02/29 09:49:47;;;;;;;33.10;21.77;;;18.50;73.50;;;;;;5071974;28;20035;-67
2024/02/29 09:52:13;;;;;;;29.58;21.38;;;18.60;73.50;;;;;;5071610;28;20021;-67
2024/02/29 09:54:42;;;;;;;31.33;21.73;;;18.60;73.50;;;;;;5072042;28;20024;-67
2024/02/29 09:57:10;;;;;;;33.42;22.23;;;18.60;73.50;;;;;;5071680;28;20403;-68
2024/02/29 09:59:37;;;;;;;30.17;21.98;;;18.60;73.50;;;;;;5071585;28;20047;-68
2024/02/29 10:02:05;;;;;;;31.65;21.67;;;18.60;73.50;;;;;;5071789;28;20020;-67
2024/02/29 10:04:31;;;;;;;29.60;21.00;;;18.60;73.50;;;;;;5071833;28;20399;-68
2024/02/29 10:06:57;;;;;;;30.55;20.80;;;18.60;73.50;;;;;;5071674;28;20028;-68
2024/02/29 10:09:23;;;;;;;29.35;20.90;;;18.60;73.50;;;;;;5071740;28;20126;-67
2024/02/29 10:11:49;;;;;;;30.08;20.13;;;18.60;73.50;;;;;;5071450;28;20445;-67
2024/02/29 10:14:22;;;;;;;26.85;18.95;;;18.60;73.50;;;;;;5071343;28;20024;-68
2024/02/29 10:16:54;;;;;;;29.75;20.90;;;18.60;73.50;;;;;;5071309;28;20033;-68
2024/02/29 10:19:21;;;;;;;27.45;19.90;;;18.60;73.50;;;;;;5070024;28;20033;-68
2024/02/29 10:21:47;;;;;;;29.13;19.85;;;18.60;73.50;;;;;;5071341;28;20020;-68
2024/02/29 10:24:13;;;;;;;27.40;20.23;;;18.60;73.50;;;;;;5071532;28;20016;-67
2024/02/29 10:26:38;;;;;;;28.67;20.70;;;18.60;73.40;;;;;;5071503;28;20086;-68
2024/02/29 10:29:14;;;;;;;30.58;19.77;;;18.70;73.40;;;;;;5071496;28;20050;-68
2024/02/29 10:31:40;;;;;;;27.05;19.65;;;18.60;73.40;;;;;;5071292;28;20492;-69
2024/02/29 10:34:10;;;;;;;27.45;20.20;;;18.60;73.40;;;;;;5071343;28;20028;-68
2024/02/29 10:36:35;;;;;;;27.42;19.00;;;18.70;73.40;;;;;;5071807;28;20041;-68
2024/02/29 10:39:01;;;;;;;26.08;19.25;;;18.70;73.40;;;;;;5075574;28;20142;-68
2024/02/29 10:41:31;;;;;;;27.00;19.10;;;18.70;73.40;;;;;;5075171;28;20376;-67
2024/02/29 10:44:05;;;;;;;25.05;18.40;;;18.70;73.40;;;;;;5075490;28;20051;-68
2024/02/29 10:46:32;;;;;;;27.42;18.95;;;18.70;73.40;;;;;;5075306;28;20423;-69
2024/02/29 10:49:13;;;;;;;25.25;18.08;;;18.70;73.40;;;;;;5075546;28;20078;-68
2024/02/29 10:51:44;;;;;;;27.57;19.23;;;18.70;73.40;;;;;;5075182;28;20229;-69
2024/02/29 10:54:25;;;;;;;24.55;17.85;;;18.70;73.40;;;;;;5074025;28;20269;-67
2024/02/29 10:56:52;;;;;;;;;;;18.70;73.40;;;;;;5075286;28;20036;-69
2024/02/29 10:59:19;;;;;;;22.15;17.85;;;18.70;73.40;;;;;;5075085;28;19916;-68
2024/02/29 11:01:46;;;;;;;22.38;16.88;;;18.70;73.30;;;;;;5075113;28;20047;-68
2024/02/29 11:04:12;;;;;;;25.15;17.17;;;18.70;73.30;;;;;;5075076;28;20384;-68
2024/02/29 11:06:46;;;;;;;25.95;17.70;;;18.70;73.30;;;;;;5074978;28;20036;-68
2024/02/29 11:09:18;;;;;;;26.65;17.33;;;18.70;73.30;;;;;;5074746;28;20618;-68
2024/02/29 11:11:48;;;;;;;23.17;17.35;;;18.70;73.30;;;;;;5074498;28;20028;-67
2024/02/29 11:14:17;;;;;;;24.23;18.05;;;18.70;73.30;;;;;;5074715;28;20369;-68
2024/02/29 11:16:45;;;;;;;25.45;17.48;;;18.70;73.30;;;;;;5073374;28;20103;-67
2024/02/29 11:19:20;;;;;;;23.75;17.08;;;18.70;73.20;;;;;;5074725;28;20086;-68
2024/02/29 11:21:46;;;;;;;21.90;15.57;;;18.70;73.20;;;;;;5074157;28;20021;-68
2024/02/29 11:24:22;;;;;;;22.13;16.10;;;18.70;73.20;;;;;;5074456;28;20036;-68
2024/02/29 11:26:55;;;;;;;22.98;17.08;;;18.70;73.20;;;;;;5074421;28;20098;-68
2024/02/29 11:29:22;;;;;;;23.88;17.45;;;18.70;73.20;;;;;;5074497;28;20024;-68
2024/02/29 11:31:56;;;;;;;21.80;16.10;;;18.70;73.20;;;;;;5074640;28;20020;-68
2024/02/29 11:34:22;;;;;;;22.35;16.38;;;18.60;73.20;;;;;;5074656;28;20028;-69
2024/02/29 11:36:49;;;;;;;23.38;16.58;;;18.70;73.20;;;;;;5074497;28;20024;-68
2024/02/29 11:39:17;;;;;;;21.00;15.10;;;18.60;73.20;;;;;;5074291;28;20032;-68
2024/02/29 11:41:43;;;;;;;22.02;16.48;;;18.60;73.20;;;;;;5074077;28;20048;-68
2024/02/29 11:44:09;;;;;;;22.15;15.63;;;18.60;73.20;;;;;;5074245;28;20036;-68
2024/02/29 11:46:44;;;;;;;21.25;15.57;;;18.60;73.20;;;;;;5074116;28;20020;-68
2024/02/29 11:49:16;;;;;;;20.25;15.23;;;18.60;73.20;;;;;;5073895;28;20090;-67
2024/02/29 11:51:45;;;;;;;19.38;14.52;;;18.60;73.20;;;;;;5074095;28;20025;-67
2024/02/29 11:54:16;;;;;;;18.52;14.60;;;18.60;73.20;;;;;;5074218;28;20059;-67
2024/02/29 11:56:42;;;;;;;20.10;15.07;;;18.60;73.30;;;;;;5072752;28;20036;-68
2024/02/29 11:59:10;;;;;;;19.25;14.15;;;18.60;73.30;;;;;;5094206;23;20045;-64
2024/02/29 12:01:36;;;;;;;22.23;14.77;;;18.60;73.30;;;;;;5072812;28;20025;-65
2024/02/29 12:04:02;;;;;;;18.25;13.93;;;18.60;73.30;;;;;;5074120;28;20016;-65
2024/02/29 12:06:28;;;;;;;19.60;14.00;;;18.60;73.20;;;;;;5055920;28;20024;-65
2024/02/29 12:08:55;;;;;;;19.88;14.75;;;18.60;73.20;;;;;;5073782;28;20526;-65
2024/02/29 12:11:21;;;;;;;18.20;13.73;;;18.60;73.20;;;;;;5073428;28;20550;-65
2024/02/29 12:13:47;;;;;;;20.73;13.90;;;18.60;73.20;;;;;;5073544;28;20033;-65
2024/02/29 12:16:13;;;;;;;18.85;13.20;;;18.60;73.20;;;;;;5073463;28;20035;-65
2024/02/29 12:18:39;;;;;;;17.10;13.32;;;18.60;73.10;;;;;;5073412;28;20170;-65
2024/02/29 12:21:05;;;;;;;17.65;13.85;;;18.60;73.10;;;;;;5073248;28;20498;-64